createdAt,value
2018-11-27T00:05:56.458Z,39.80
2018-11-27T00:11:59.891Z,39.27
2018-11-27T00:18:03.436Z,39.17
2018-11-27T00:24:07.150Z,36.83
2018-11-27T00:30:14.495Z,39.43
2018-11-27T00:36:17.918Z,37.43
2018-11-27T00:42:21.920Z,38.13
2018-11-27T00:48:25.618Z,40.35
2018-11-27T00:54:29.093Z,39.13
2018-11-27T01:00:32.545Z,39.07
2018-11-27T01:06:35.981Z,39.83
2018-11-27T01:12:39.426Z,39.53
2018-11-27T01:18:42.852Z,40.38
2018-11-27T01:24:46.308Z,39.97
2018-11-27T01:30:49.739Z,39.65
2018-11-27T01:36:53.865Z,41.07
2018-11-27T01:42:57.876Z,40.30
2018-11-27T01:49:01.380Z,41.43
2018-11-27T01:55:05.174Z,40.92
2018-11-27T02:01:08.697Z,40.23
2018-11-27T02:07:12.143Z,39.23
2018-11-27T02:13:15.605Z,42.10
2018-11-27T02:19:19.040Z,42.33
2018-11-27T02:25:29.554Z,43.35
2018-11-27T02:31:32.987Z,43.87
2018-11-27T02:37:36.437Z,45.07
2018-11-27T02:43:39.859Z,43.68
2018-11-27T02:49:43.294Z,44.25
2018-11-27T02:55:46.793Z,43.37
2018-11-27T03:01:50.216Z,41.53
2018-11-27T03:07:53.715Z,40.30
2018-11-27T03:13:57.150Z,41.47
2018-11-27T03:20:00.575Z,43.13
2018-11-27T03:26:04.095Z,43.33
2018-11-27T03:32:07.543Z,42.77
2018-11-27T03:38:10.983Z,39.83
2018-11-27T03:44:14.429Z,39.77
2018-11-27T03:50:23.925Z,38.45
2018-11-27T03:56:27.352Z,39.80
2018-11-27T04:02:30.789Z,41.00
2018-11-27T04:08:34.888Z,43.87
2018-11-27T04:14:38.895Z,41.73
2018-11-27T04:20:42.358Z,43.63
2018-11-27T04:26:45.820Z,43.00
2018-11-27T04:32:49.321Z,42.83
2018-11-27T04:38:52.956Z,42.20
2018-11-27T04:44:56.447Z,42.63
2018-11-27T04:50:59.884Z,42.63
2018-11-27T04:57:03.353Z,42.20
2018-11-27T05:03:09.773Z,40.53
2018-11-27T05:09:13.233Z,42.60
2018-11-27T05:15:18.388Z,40.50
2018-11-27T05:21:21.822Z,40.50
2018-11-27T05:27:25.304Z,42.08
2018-11-27T05:33:28.738Z,41.13
2018-11-27T05:39:32.223Z,40.33
2018-11-27T05:45:35.716Z,42.73
2018-11-27T05:51:39.207Z,42.20
2018-11-27T05:57:43.224Z,44.00
2018-11-27T06:03:47.267Z,43.40
2018-11-27T06:09:50.727Z,46.90
2018-11-27T06:15:54.290Z,41.57
2018-11-27T06:21:57.799Z,40.93
2018-11-27T06:28:05.328Z,41.27
2018-11-27T06:34:08.786Z,43.97
2018-11-27T06:40:14.692Z,39.87
2018-11-27T06:46:18.186Z,44.10
2018-11-27T06:52:21.651Z,40.50
2018-11-27T06:58:25.070Z,40.07
2018-11-27T07:04:28.524Z,40.27
2018-11-27T07:10:33.822Z,40.50
2018-11-27T07:16:37.262Z,40.30
2018-11-27T07:22:40.721Z,36.37
2018-11-27T07:28:44.153Z,38.13
2018-11-27T07:34:47.663Z,40.10
2018-11-27T07:40:51.074Z,39.87
2018-11-27T07:46:54.509Z,38.30
2018-11-27T07:52:57.956Z,37.83
2018-11-27T07:59:01.389Z,38.27
2018-11-27T08:05:06.411Z,37.83
2018-11-27T08:11:09.866Z,36.83
2018-11-27T08:17:13.315Z,35.33
2018-11-27T08:23:16.785Z,34.03
2018-11-27T08:29:20.247Z,34.33
2018-11-27T08:35:24.710Z,32.60
2018-11-27T08:41:28.277Z,32.63
2018-11-27T08:47:31.735Z,32.10
2018-11-27T08:53:35.211Z,32.23
2018-11-27T08:59:38.611Z,33.60
2018-11-27T09:05:42.047Z,33.02
2018-11-27T09:11:45.577Z,31.17
2018-11-27T09:17:53.526Z,30.67
2018-11-27T09:23:56.974Z,32.10
2018-11-27T09:30:00.429Z,31.37
2018-11-27T09:36:03.937Z,31.42
2018-11-27T09:42:07.425Z,30.75
2018-11-27T09:48:10.859Z,32.53
2018-11-27T09:54:14.285Z,34.90
2018-11-27T10:00:27.687Z,32.10
2018-11-27T10:06:31.093Z,32.43
2018-11-27T10:12:34.821Z,30.33
2018-11-27T10:18:38.252Z,32.20
2018-11-27T10:24:41.712Z,31.48
2018-11-27T10:30:45.165Z,31.42
2018-11-27T10:36:48.632Z,38.63
2018-11-27T10:42:52.150Z,34.17
2018-11-27T10:48:55.577Z,31.33
2018-11-27T10:54:59.004Z,35.37
2018-11-27T11:01:08.909Z,33.43
2018-11-27T11:07:12.387Z,37.87
2018-11-27T11:13:15.837Z,37.37
2018-11-27T11:19:19.323Z,36.33
2018-11-27T11:25:23.893Z,37.43
2018-11-27T11:31:27.361Z,37.73
2018-11-27T11:37:30.817Z,35.92
2018-11-27T11:43:34.322Z,34.53
2018-11-27T11:49:37.772Z,40.10
2018-11-27T11:55:41.281Z,37.20
2018-11-27T12:01:44.728Z,38.45
2018-11-27T12:07:48.200Z,37.40
2018-11-27T12:13:51.676Z,40.78
2018-11-27T12:19:55.138Z,36.53
2018-11-27T12:25:58.570Z,38.50
2018-11-27T12:32:02.022Z,38.85
2018-11-27T12:38:05.649Z,36.15
2018-11-27T12:44:09.178Z,71.90
2018-11-27T12:50:18.550Z,75.92
2018-11-27T12:56:22.022Z,68.85
2018-11-27T13:02:25.485Z,44.88
2018-11-27T13:08:28.950Z,41.58
2018-11-27T13:14:32.407Z,40.28
2018-11-27T13:20:35.940Z,39.13
2018-11-27T13:26:39.380Z,36.50
2018-11-27T13:32:43.120Z,36.42
2018-11-27T13:38:46.559Z,35.92
2018-11-27T13:44:49.989Z,33.15
2018-11-27T13:50:53.547Z,34.65
2018-11-27T13:56:56.993Z,34.60
2018-11-27T14:03:00.421Z,35.38
2018-11-27T14:09:05.042Z,36.30
2018-11-27T14:15:16.363Z,37.93
2018-11-27T14:21:20.560Z,37.13
2018-11-27T14:27:23.956Z,37.05
2018-11-27T14:33:28.046Z,36.53
2018-11-27T14:39:31.556Z,37.28
2018-11-27T14:45:35.057Z,36.05
2018-11-27T14:51:38.547Z,37.15
2018-11-27T14:57:42.032Z,37.42
2018-11-27T15:03:45.492Z,38.23
2018-11-27T15:09:48.882Z,35.75
2018-11-27T15:15:52.409Z,44.98
2018-11-27T15:21:55.829Z,43.55
2018-11-27T15:27:59.306Z,58.80
2018-11-27T15:34:02.799Z,69.90
2018-11-27T15:40:09.520Z,42.53
2018-11-27T15:46:12.990Z,63.78
2018-11-27T15:52:16.484Z,44.15
2018-11-27T15:58:20.014Z,39.30
2018-11-27T16:04:23.432Z,38.65
2018-11-27T16:10:26.957Z,37.13
2018-11-27T16:16:30.408Z,37.45
2018-11-27T16:22:33.832Z,36.70
2018-11-27T16:28:37.438Z,37.78
2018-11-27T16:34:40.932Z,33.23
2018-11-27T16:40:44.406Z,33.45
2018-11-27T16:46:47.877Z,32.08
2018-11-27T16:52:51.410Z,33.05
2018-11-27T16:58:54.858Z,34.10
2018-11-27T17:04:58.334Z,32.23
2018-11-27T17:11:01.775Z,33.48
2018-11-27T17:17:05.355Z,33.28
2018-11-27T17:23:10.188Z,33.45
2018-11-27T17:29:13.707Z,33.55
2018-11-27T17:35:18.156Z,34.20
2018-11-27T17:41:22.504Z,33.18
2018-11-27T17:47:26.034Z,30.95
2018-11-27T17:53:36.540Z,29.05
2018-11-27T17:59:40.035Z,29.90
2018-11-27T18:05:43.478Z,28.62
2018-11-27T18:11:46.969Z,29.85
2018-11-27T18:17:50.432Z,28.25
2018-11-27T18:23:53.952Z,27.05
2018-11-27T18:29:57.437Z,26.15
2018-11-27T18:36:00.967Z,26.20
2018-11-27T18:42:04.448Z,24.60
2018-11-27T18:48:07.905Z,28.60
2018-11-27T18:54:11.350Z,28.62
2018-11-27T19:00:20.680Z,27.60
2018-11-27T19:06:24.170Z,31.82
2018-11-27T19:12:27.680Z,32.87
2018-11-27T19:18:31.107Z,44.45
2018-11-27T19:24:34.613Z,48.15
2018-11-27T19:30:38.053Z,44.80
2018-11-27T19:36:41.520Z,39.75
2018-11-27T19:42:45.012Z,40.35
2018-11-27T19:48:53.427Z,38.05
2018-11-27T19:54:51.968Z,33.30
2018-11-27T20:00:55.444Z,32.70
2018-11-27T20:07:04.186Z,28.97
2018-11-27T20:13:07.793Z,30.75
2018-11-27T20:19:11.290Z,30.92
2018-11-27T20:25:15.914Z,28.75
2018-11-27T20:31:19.546Z,28.83
2018-11-27T20:37:23.042Z,26.70
2018-11-27T20:43:26.508Z,26.87
2018-11-27T20:49:29.962Z,27.10
2018-11-27T20:55:33.580Z,25.00
2018-11-27T21:01:37.051Z,27.00
2018-11-27T21:07:40.559Z,29.77
2018-11-27T21:13:44.110Z,29.25
2018-11-27T21:19:47.613Z,29.92
2018-11-27T21:25:56.331Z,35.45
2018-11-27T21:31:54.551Z,28.32
2018-11-27T21:37:58.063Z,36.08
2018-11-27T21:44:01.567Z,28.27
2018-11-27T21:50:06.396Z,25.08
2018-11-27T21:57:58.545Z,25.88
2018-11-27T22:04:02.040Z,24.20
2018-11-27T22:10:09.193Z,22.15
2018-11-27T22:16:12.651Z,22.30
2018-11-27T22:22:16.344Z,21.40
2018-11-27T22:28:19.826Z,22.60
2018-11-27T22:34:23.240Z,20.55
2018-11-27T22:40:26.705Z,24.47
2018-11-27T22:46:30.476Z,22.52
2018-11-27T22:52:34.102Z,22.62
2018-11-27T22:58:37.545Z,21.30
2018-11-27T23:04:41.391Z,19.45
2018-11-27T23:10:45.857Z,20.72
2018-11-27T23:16:50.013Z,19.40
2018-11-27T23:22:53.600Z,18.48
2018-11-27T23:28:57.034Z,18.40
2018-11-27T23:35:00.487Z,15.30
2018-11-27T23:41:03.989Z,18.10
2018-11-27T23:47:07.426Z,16.07
2018-11-27T23:53:10.865Z,16.05
2018-11-27T23:59:14.331Z,17.40
